createdAt,value
2019-04-27T00:02:18.158Z,0.80
2019-04-27T00:04:55.893Z,1.00
2019-04-27T00:07:33.677Z,0.98
2019-04-27T00:10:05.018Z,1.00
2019-04-27T00:12:35.949Z,0.88
2019-04-27T00:15:07.071Z,0.88
2019-04-27T00:17:58.330Z,1.20
2019-04-27T00:20:28.005Z,0.72
2019-04-27T00:22:58.803Z,1.57
2019-04-27T00:25:30.809Z,1.20
2019-04-27T00:28:00.061Z,0.70
2019-04-27T00:30:29.295Z,0.93
2019-04-27T00:32:59.872Z,1.02
2019-04-27T00:35:30.664Z,1.00
2019-04-27T00:38:07.573Z,1.12
2019-04-27T00:40:39.996Z,1.00
2019-04-27T00:43:09.163Z,0.80
2019-04-27T00:45:38.268Z,1.00
2019-04-27T00:48:07.427Z,1.07
2019-04-27T00:50:36.623Z,1.00
2019-04-27T00:53:05.882Z,1.30
2019-04-27T00:55:36.692Z,0.93
2019-04-27T00:58:23.126Z,1.37
2019-04-27T01:00:56.744Z,1.02
2019-04-27T01:03:27.527Z,0.90
2019-04-27T01:05:56.884Z,0.98
2019-04-27T01:08:27.932Z,1.02
2019-04-27T01:10:57.370Z,1.10
2019-04-27T01:13:29.248Z,1.00
2019-04-27T01:15:57.597Z,0.75
2019-04-27T01:18:28.448Z,0.90
2019-04-27T01:20:59.101Z,0.90
2019-04-27T01:23:29.409Z,0.98
2019-04-27T01:26:06.708Z,0.80
2019-04-27T01:28:38.884Z,0.70
2019-04-27T01:33:39.007Z,0.90
2019-04-27T01:36:08.917Z,1.30
2019-04-27T01:38:41.042Z,1.10
2019-04-27T01:41:10.460Z,0.90
2019-04-27T01:43:39.665Z,1.10
2019-04-27T01:46:09.236Z,1.37
2019-04-27T01:48:38.795Z,1.20
2019-04-27T01:51:09.818Z,1.22
2019-04-27T01:56:29.421Z,1.45
2019-04-27T01:58:59.537Z,1.10
2019-04-27T02:01:33.098Z,1.05
2019-04-27T02:04:12.769Z,1.57
2019-04-27T02:06:42.188Z,1.37
2019-04-27T02:09:12.723Z,1.30
2019-04-27T02:11:41.994Z,1.40
2019-04-27T02:14:11.319Z,1.30
2019-04-27T02:16:41.437Z,1.27
2019-04-27T02:19:11.284Z,1.20
2019-04-27T02:21:41.157Z,1.30
2019-04-27T02:24:11.252Z,2.80
2019-04-27T02:26:40.728Z,2.25
2019-04-27T02:29:26.342Z,2.42
2019-04-27T02:31:57.348Z,1.50
2019-04-27T02:34:34.362Z,1.00
2019-04-27T02:37:03.852Z,1.27
2019-04-27T02:39:32.991Z,1.32
2019-04-27T02:42:04.978Z,1.30
2019-04-27T02:44:40.544Z,1.10
2019-04-27T02:47:10.337Z,1.32
2019-04-27T02:49:40.752Z,1.45
2019-04-27T02:52:11.936Z,2.50
2019-04-27T02:54:41.187Z,2.95
2019-04-27T02:57:10.484Z,1.90
2019-04-27T02:59:40.111Z,1.92
2019-04-27T03:02:20.060Z,1.90
2019-04-27T03:04:51.189Z,1.30
2019-04-27T03:07:20.514Z,1.57
2019-04-27T03:09:50.977Z,3.05
2019-04-27T03:12:22.326Z,5.17
2019-04-27T03:15:10.208Z,2.98
2019-04-27T03:17:43.187Z,2.30
2019-04-27T03:20:17.196Z,2.08
2019-04-27T03:22:49.839Z,1.62
2019-04-27T03:25:23.660Z,2.25
2019-04-27T03:28:00.280Z,2.17
2019-04-27T03:30:31.889Z,2.10
2019-04-27T03:33:03.083Z,2.42
2019-04-27T03:35:36.733Z,1.90
2019-04-27T03:38:04.997Z,1.90
2019-04-27T03:40:34.398Z,1.85
2019-04-27T03:43:06.135Z,2.22
2019-04-27T03:45:35.452Z,2.10
2019-04-27T03:48:04.682Z,2.33
2019-04-27T03:50:39.844Z,2.10
2019-04-27T03:53:29.778Z,2.40
2019-04-27T03:56:15.987Z,2.02
2019-04-27T03:58:49.666Z,2.30
2019-04-27T04:01:20.330Z,2.37
2019-04-27T04:03:50.448Z,2.33
2019-04-27T04:06:19.755Z,2.50
2019-04-27T04:08:50.766Z,2.27
2019-04-27T04:11:22.348Z,2.27
2019-04-27T04:13:56.504Z,3.05
2019-04-27T04:16:29.677Z,2.25
2019-04-27T04:19:01.349Z,2.42
2019-04-27T04:21:31.226Z,2.60
2019-04-27T04:24:01.519Z,2.80
2019-04-27T04:26:34.157Z,2.60
2019-04-27T04:29:04.053Z,2.98
2019-04-27T04:31:33.898Z,2.55
2019-04-27T04:34:03.966Z,2.98
2019-04-27T04:36:34.319Z,2.70
2019-04-27T04:39:06.033Z,2.90
2019-04-27T04:41:52.554Z,3.05
2019-04-27T04:44:30.253Z,2.87
2019-04-27T04:47:01.966Z,2.98
2019-04-27T04:49:32.312Z,3.10
2019-04-27T04:52:02.411Z,3.27
2019-04-27T04:54:32.114Z,3.10
2019-04-27T04:57:02.104Z,3.08
2019-04-27T04:59:33.907Z,3.08
2019-04-27T05:02:03.527Z,2.77
2019-04-27T05:04:34.418Z,2.55
2019-04-27T05:07:05.245Z,2.95
2019-04-27T05:09:35.166Z,2.70
2019-04-27T05:12:04.870Z,2.70
2019-04-27T05:14:34.678Z,2.80
2019-04-27T05:17:04.879Z,2.90
2019-04-27T05:19:34.862Z,2.80
2019-04-27T05:22:04.866Z,2.67
2019-04-27T05:24:34.960Z,2.60
2019-04-27T05:27:04.653Z,2.40
2019-04-27T05:29:34.903Z,2.42
2019-04-27T05:32:04.758Z,2.67
2019-04-27T05:34:34.678Z,2.40
2019-04-27T05:37:04.650Z,2.17
2019-04-27T05:39:34.466Z,2.67
2019-04-27T05:42:05.056Z,2.35
2019-04-27T05:45:19.993Z,2.75
2019-04-27T05:48:00.749Z,2.37
2019-04-27T05:50:38.077Z,2.55
2019-04-27T05:53:02.501Z,2.25
2019-04-27T05:55:32.743Z,2.83
2019-04-27T05:58:02.513Z,2.20
2019-04-27T06:00:32.922Z,2.47
2019-04-27T06:03:03.060Z,2.42
2019-04-27T06:05:32.929Z,2.30
2019-04-27T06:08:02.956Z,2.50
2019-04-27T06:10:32.930Z,2.22
2019-04-27T06:13:02.915Z,2.62
2019-04-27T06:15:33.249Z,2.20
2019-04-27T06:18:02.863Z,2.25
2019-04-27T06:20:32.909Z,2.90
2019-04-27T06:23:03.264Z,2.55
2019-04-27T06:25:33.368Z,2.52
2019-04-27T06:28:03.354Z,2.17
2019-04-27T06:30:33.364Z,2.62
2019-04-27T06:33:03.529Z,2.17
2019-04-27T06:35:35.067Z,2.72
2019-04-27T06:38:05.128Z,2.35
2019-04-27T06:40:35.523Z,2.45
2019-04-27T06:43:05.769Z,2.02
2019-04-27T06:45:35.861Z,1.98
2019-04-27T06:48:09.596Z,2.27
2019-04-27T06:50:39.856Z,2.70
2019-04-27T06:53:09.849Z,2.27
2019-04-27T06:55:39.950Z,2.85
2019-04-27T06:58:10.211Z,2.20
2019-04-27T07:00:40.179Z,1.90
2019-04-27T07:03:12.081Z,2.30
2019-04-27T07:06:04.837Z,2.15
2019-04-27T07:08:35.228Z,2.67
2019-04-27T07:11:04.870Z,2.98
2019-04-27T07:13:34.818Z,2.45
2019-04-27T07:16:04.726Z,2.30
2019-04-27T07:18:36.168Z,2.15
2019-04-27T07:21:16.153Z,2.45
2019-04-27T07:23:39.808Z,2.25
2019-04-27T07:26:10.007Z,2.20
2019-04-27T07:28:40.994Z,2.10
2019-04-27T07:31:11.617Z,1.90
2019-04-27T07:33:41.455Z,2.35
2019-04-27T07:36:11.608Z,2.12
2019-04-27T07:38:41.659Z,1.90
2019-04-27T07:41:12.220Z,1.98
2019-04-27T07:43:43.905Z,1.72
2019-04-27T07:46:13.957Z,1.60
2019-04-27T07:48:43.958Z,1.70
2019-04-27T07:51:14.243Z,1.40
2019-04-27T07:53:44.115Z,1.35
2019-04-27T07:56:14.122Z,1.45
2019-04-27T07:58:46.164Z,1.20
2019-04-27T08:01:16.655Z,1.70
2019-04-27T08:03:46.585Z,1.20
2019-04-27T08:06:16.504Z,1.55
2019-04-27T08:08:49.209Z,1.15
2019-04-27T08:11:22.049Z,1.27
2019-04-27T08:13:52.903Z,1.20
2019-04-27T08:16:23.007Z,1.10
2019-04-27T08:18:53.125Z,1.12
2019-04-27T08:21:23.225Z,1.07
2019-04-27T08:23:53.105Z,1.10
2019-04-27T08:26:24.743Z,1.30
2019-04-27T08:28:56.369Z,0.70
2019-04-27T08:31:33.878Z,1.40
2019-04-27T08:34:04.652Z,0.88
2019-04-27T08:36:34.350Z,0.90
2019-04-27T08:39:05.760Z,1.00
2019-04-27T08:41:35.633Z,1.10
2019-04-27T08:44:05.503Z,0.80
2019-04-27T08:46:35.684Z,0.93
2019-04-27T08:49:05.775Z,0.70
2019-04-27T08:51:37.017Z,0.75
2019-04-27T08:54:06.887Z,0.90
2019-04-27T08:56:36.854Z,0.45
2019-04-27T08:59:06.718Z,0.60
2019-04-27T09:01:37.047Z,0.65
2019-04-27T09:04:07.207Z,0.37
2019-04-27T09:06:39.901Z,0.55
2019-04-27T09:09:29.538Z,0.28
2019-04-27T09:12:01.337Z,0.23
2019-04-27T09:14:41.955Z,0.40
2019-04-27T09:17:16.004Z,0.17
2019-04-27T09:19:50.436Z,0.40
2019-04-27T09:22:20.944Z,0.25
2019-04-27T09:24:50.575Z,0.23
2019-04-27T09:27:20.624Z,0.37
2019-04-27T09:29:51.151Z,0.40
2019-04-27T09:32:21.623Z,0.30
2019-04-27T09:34:52.129Z,0.35
2019-04-27T09:37:22.034Z,0.23
2019-04-27T09:39:53.079Z,0.20
2019-04-27T09:42:22.941Z,0.65
2019-04-27T09:44:53.060Z,0.55
2019-04-27T09:47:23.092Z,0.80
2019-04-27T09:49:53.465Z,0.98
2019-04-27T09:52:26.969Z,1.15
2019-04-27T09:54:57.057Z,1.20
2019-04-27T09:57:27.365Z,1.30
2019-04-27T09:59:57.418Z,1.20
2019-04-27T10:02:27.874Z,1.32
2019-04-27T10:04:57.995Z,1.55
2019-04-27T10:07:27.941Z,1.32
2019-04-27T10:09:58.821Z,1.55
2019-04-27T10:12:28.632Z,1.60
2019-04-27T10:14:58.797Z,1.50
2019-04-27T10:17:28.977Z,0.98
2019-04-27T10:19:58.778Z,1.15
2019-04-27T10:22:40.384Z,1.25
2019-04-27T10:25:00.768Z,1.60
2019-04-27T10:27:32.028Z,2.02
2019-04-27T10:30:02.756Z,2.20
2019-04-27T10:32:33.058Z,1.32
2019-04-27T10:35:03.018Z,1.75
2019-04-27T10:37:33.208Z,1.92
2019-04-27T10:40:03.489Z,1.80
2019-04-27T10:42:33.729Z,1.57
2019-04-27T10:45:04.027Z,1.98
2019-04-27T10:47:36.019Z,1.60
2019-04-27T10:52:37.505Z,1.92
2019-04-27T10:55:09.145Z,2.00
2019-04-27T10:57:39.603Z,2.37
2019-04-27T11:00:12.202Z,1.85
2019-04-27T11:02:42.623Z,2.22
2019-04-27T11:05:22.907Z,2.08
2019-04-27T11:07:56.362Z,2.87
2019-04-27T11:10:27.403Z,2.20
2019-04-27T11:12:57.397Z,2.17
2019-04-27T11:15:27.479Z,2.35
2019-04-27T11:17:57.531Z,2.92
2019-04-27T11:20:29.337Z,2.37
2019-04-27T11:23:07.138Z,2.30
2019-04-27T11:28:01.903Z,2.35
2019-04-27T11:30:32.138Z,3.00
2019-04-27T11:33:02.054Z,0.88
2019-04-27T11:35:39.237Z,1.42
2019-04-27T11:38:11.448Z,1.25
2019-04-27T11:40:41.353Z,0.62
2019-04-27T11:43:11.379Z,1.57
2019-04-27T11:45:41.505Z,0.93
2019-04-27T11:48:11.514Z,1.32
2019-04-27T11:50:41.553Z,1.00
2019-04-27T11:53:22.074Z,1.00
2019-04-27T11:55:43.199Z,1.10
2019-04-27T11:58:13.189Z,1.35
2019-04-27T12:00:43.336Z,1.27
2019-04-27T12:03:13.817Z,0.78
2019-04-27T12:05:43.921Z,0.55
2019-04-27T12:08:16.076Z,0.70
2019-04-27T12:10:48.394Z,0.80
2019-04-27T12:13:18.523Z,0.55
2019-04-27T12:15:48.986Z,0.85
2019-04-27T12:18:19.305Z,0.90
2019-04-27T12:20:49.323Z,0.90
2019-04-27T12:23:32.733Z,0.82
2019-04-27T12:28:27.216Z,1.10
2019-04-27T12:30:59.401Z,1.02
2019-04-27T12:35:59.501Z,0.98
2019-04-27T12:38:29.991Z,1.40
2019-04-27T12:41:00.421Z,0.98
2019-04-27T12:43:30.432Z,1.40
2019-04-27T12:46:00.812Z,1.42
2019-04-27T12:48:31.257Z,1.10
2019-04-27T12:51:01.650Z,1.40
2019-04-27T12:53:47.728Z,1.70
2019-04-27T12:56:12.973Z,1.17
2019-04-27T12:58:51.066Z,1.40
2019-04-27T13:01:23.221Z,1.70
2019-04-27T13:03:56.623Z,1.85
2019-04-27T13:06:25.983Z,1.50
2019-04-27T13:08:56.576Z,1.47
2019-04-27T13:11:27.184Z,1.77
2019-04-27T13:13:58.156Z,1.65
2019-04-27T13:16:30.390Z,1.90
2019-04-27T13:19:01.630Z,1.87
2019-04-27T13:21:32.019Z,1.70
2019-04-27T13:24:05.098Z,2.02
2019-04-27T13:26:36.197Z,1.95
2019-04-27T13:29:06.845Z,1.70
2019-04-27T13:31:37.003Z,1.40
2019-04-27T13:34:07.575Z,1.60
2019-04-27T13:36:38.106Z,1.75
2019-04-27T13:39:08.633Z,2.15
2019-04-27T13:41:38.585Z,1.72
2019-04-27T13:44:08.813Z,1.12
2019-04-27T13:46:56.535Z,1.15
2019-04-27T13:49:27.958Z,0.95
2019-04-27T13:51:59.698Z,0.80
2019-04-27T13:54:30.030Z,1.15
2019-04-27T13:57:00.409Z,0.85
2019-04-27T13:59:31.806Z,0.85
2019-04-27T14:02:01.973Z,1.10
2019-04-27T14:04:31.986Z,0.90
2019-04-27T14:07:02.027Z,1.12
2019-04-27T14:09:31.914Z,1.12
2019-04-27T14:12:06.163Z,1.30
2019-04-27T14:14:36.491Z,1.30
2019-04-27T14:17:07.882Z,1.07
2019-04-27T14:19:39.492Z,1.57
2019-04-27T14:22:09.309Z,1.05
2019-04-27T14:24:40.594Z,1.55
2019-04-27T14:27:10.592Z,1.60
2019-04-27T14:29:40.632Z,1.20
2019-04-27T14:32:10.844Z,1.10
2019-04-27T14:34:40.632Z,1.20
2019-04-27T14:37:10.632Z,1.37
2019-04-27T14:39:42.710Z,1.20
2019-04-27T14:42:13.014Z,1.35
2019-04-27T14:44:43.566Z,1.20
2019-04-27T14:47:14.134Z,1.37
2019-04-27T14:49:44.350Z,1.30
2019-04-27T14:52:14.346Z,1.60
2019-04-27T14:54:48.101Z,1.80
2019-04-27T14:57:16.544Z,1.45
2019-04-27T14:59:46.949Z,1.22
2019-04-27T15:02:18.547Z,1.60
2019-04-27T15:04:48.956Z,1.72
2019-04-27T15:07:19.602Z,1.77
2019-04-27T15:09:53.799Z,1.72
2019-04-27T15:14:53.300Z,1.55
2019-04-27T15:17:26.646Z,1.45
2019-04-27T15:20:13.072Z,1.85
2019-04-27T15:22:43.811Z,1.60
2019-04-27T15:25:15.718Z,1.65
2019-04-27T15:27:47.771Z,1.80
2019-04-27T15:30:39.643Z,1.80
2019-04-27T15:33:26.155Z,1.70
2019-04-27T15:36:08.398Z,1.42
2019-04-27T15:38:47.002Z,1.60
2019-04-27T15:41:19.635Z,1.55
2019-04-27T15:43:50.163Z,1.55
2019-04-27T15:46:21.456Z,1.47
2019-04-27T15:48:54.195Z,1.87
2019-04-27T15:51:23.050Z,2.05
2019-04-27T15:53:54.003Z,2.30
2019-04-27T15:56:23.890Z,1.65
2019-04-27T15:58:55.702Z,1.60
2019-04-27T16:01:25.476Z,1.80
2019-04-27T16:03:55.236Z,1.60
2019-04-27T16:06:25.536Z,1.82
2019-04-27T16:08:55.783Z,1.50
2019-04-27T16:11:25.665Z,1.40
2019-04-27T16:13:55.798Z,2.10
2019-04-27T16:16:29.082Z,3.05
2019-04-27T16:18:59.331Z,1.62
2019-04-27T16:21:31.503Z,1.80
2019-04-27T16:24:01.180Z,1.70
2019-04-27T16:26:31.202Z,2.30
2019-04-27T16:29:01.947Z,1.95
2019-04-27T16:31:33.757Z,1.20
2019-04-27T16:34:04.297Z,2.08
2019-04-27T16:36:37.760Z,1.98
2019-04-27T16:39:10.085Z,1.75
2019-04-27T16:41:42.023Z,1.70
2019-04-27T16:46:42.950Z,1.55
2019-04-27T16:49:14.829Z,1.52
2019-04-27T16:51:44.894Z,1.80
2019-04-27T16:54:17.691Z,1.62
2019-04-27T16:56:53.412Z,1.90
2019-04-27T16:59:39.567Z,1.52
2019-04-27T17:01:50.473Z,1.67
2019-04-27T17:04:20.268Z,1.55
2019-04-27T17:06:50.638Z,1.05
2019-04-27T17:09:20.461Z,1.15
2019-04-27T17:11:51.806Z,1.45
2019-04-27T17:14:35.251Z,1.30
2019-04-27T17:17:10.394Z,1.52
2019-04-27T17:19:42.476Z,1.42
2019-04-27T17:22:14.755Z,0.82
2019-04-27T17:24:46.785Z,1.30
2019-04-27T17:27:22.837Z,1.40
2019-04-27T17:29:57.404Z,1.25
2019-04-27T17:32:25.516Z,1.47
2019-04-27T17:34:55.500Z,1.40
2019-04-27T17:37:30.011Z,1.80
2019-04-27T17:39:59.435Z,1.52
2019-04-27T17:42:30.636Z,1.37
2019-04-27T17:45:00.657Z,1.47
2019-04-27T17:47:30.666Z,1.45
2019-04-27T17:50:00.471Z,1.40
2019-04-27T17:52:30.578Z,1.50
2019-04-27T17:55:00.694Z,1.77
2019-04-27T17:57:30.624Z,1.27
2019-04-27T18:00:03.245Z,1.77
2019-04-27T18:02:33.783Z,1.95
2019-04-27T18:05:03.799Z,1.30
2019-04-27T18:07:34.893Z,1.17
2019-04-27T18:10:06.598Z,1.67
2019-04-27T18:12:36.606Z,0.93
2019-04-27T18:15:10.555Z,1.25
2019-04-27T18:17:44.571Z,1.62
2019-04-27T18:20:13.188Z,1.20
2019-04-27T18:22:50.519Z,1.62
2019-04-27T18:25:20.464Z,1.70
2019-04-27T18:27:52.046Z,1.30
2019-04-27T18:30:29.367Z,1.37
2019-04-27T18:33:02.014Z,1.65
2019-04-27T18:35:31.225Z,1.70
2019-04-27T18:38:01.931Z,1.57
2019-04-27T18:40:33.572Z,1.40
2019-04-27T18:43:06.567Z,1.60
2019-04-27T18:45:38.117Z,1.70
2019-04-27T18:48:13.537Z,1.20
2019-04-27T18:50:43.478Z,1.42
2019-04-27T18:53:16.374Z,1.50
2019-04-27T18:55:49.995Z,1.32
2019-04-27T18:58:18.857Z,1.40
2019-04-27T19:00:48.468Z,1.32
2019-04-27T19:03:18.449Z,1.47
2019-04-27T19:05:48.231Z,0.88
2019-04-27T19:08:19.943Z,1.50
2019-04-27T19:10:48.715Z,0.97
2019-04-27T19:13:19.225Z,1.30
2019-04-27T19:15:49.011Z,1.32
2019-04-27T19:18:18.904Z,1.72
2019-04-27T19:20:48.343Z,1.45
2019-04-27T19:23:17.717Z,1.57
2019-04-27T19:25:48.602Z,1.30
2019-04-27T19:28:23.136Z,1.72
2019-04-27T19:30:54.032Z,1.10
2019-04-27T19:33:23.245Z,1.00
2019-04-27T19:35:52.642Z,1.00
2019-04-27T19:38:21.839Z,1.35
2019-04-27T19:40:51.222Z,1.47
2019-04-27T19:43:20.498Z,1.52
2019-04-27T19:45:49.787Z,1.47
2019-04-27T19:48:19.034Z,2.00
2019-04-27T19:50:48.182Z,1.05
2019-04-27T19:53:19.427Z,1.77
2019-04-27T19:56:03.960Z,1.65
2019-04-27T19:58:34.969Z,1.35
2019-04-27T20:01:11.768Z,1.70
2019-04-27T20:03:41.393Z,1.40
2019-04-27T20:06:10.849Z,1.50
2019-04-27T20:08:41.638Z,1.70
2019-04-27T20:11:10.878Z,1.20
2019-04-27T20:13:41.141Z,1.60
2019-04-27T20:16:10.854Z,1.27
2019-04-27T20:18:43.214Z,1.07
2019-04-27T20:21:12.345Z,1.40
2019-04-27T20:23:41.664Z,1.30
2019-04-27T20:26:10.898Z,1.77
2019-04-27T20:28:41.422Z,1.60
2019-04-27T20:31:11.041Z,1.60
2019-04-27T20:33:43.129Z,1.55
2019-04-27T20:36:12.446Z,1.07
2019-04-27T20:38:41.956Z,1.30
2019-04-27T20:41:11.618Z,1.50
2019-04-27T20:43:42.069Z,1.30
2019-04-27T20:46:11.902Z,1.62
2019-04-27T20:48:41.435Z,1.77
2019-04-27T20:51:11.407Z,1.55
2019-04-27T20:53:45.368Z,1.57
2019-04-27T20:56:14.675Z,1.42
2019-04-27T20:58:43.819Z,1.12
2019-04-27T21:01:13.033Z,1.20
2019-04-27T21:03:43.860Z,1.62
2019-04-27T21:06:14.663Z,1.55
2019-04-27T21:08:44.822Z,1.72
2019-04-27T21:11:14.127Z,1.45
2019-04-27T21:13:43.448Z,1.22
2019-04-27T21:16:12.698Z,1.77
2019-04-27T21:18:42.092Z,1.72
2019-04-27T21:21:11.543Z,1.25
2019-04-27T21:23:41.401Z,1.55
2019-04-27T21:26:10.834Z,1.52
2019-04-27T21:28:41.551Z,1.42
2019-04-27T21:31:12.693Z,1.62
2019-04-27T21:33:42.110Z,1.37
2019-04-27T21:36:11.865Z,1.70
2019-04-27T21:38:43.008Z,1.17
2019-04-27T21:41:12.142Z,1.50
2019-04-27T21:43:43.579Z,1.80
2019-04-27T21:46:12.618Z,1.47
2019-04-27T21:48:41.974Z,1.27
2019-04-27T21:51:11.865Z,1.50
2019-04-27T21:53:57.774Z,1.57
2019-04-27T21:56:27.105Z,1.02
2019-04-27T21:58:56.517Z,1.30
2019-04-27T22:01:27.854Z,1.42
2019-04-27T22:03:57.194Z,0.80
2019-04-27T22:06:26.354Z,1.32
2019-04-27T22:08:55.604Z,1.30
2019-04-27T22:11:25.059Z,1.12
2019-04-27T22:13:54.319Z,1.05
2019-04-27T22:16:23.549Z,1.30
2019-04-27T22:18:52.771Z,1.30
2019-04-27T22:21:22.011Z,2.37
2019-04-27T22:23:53.214Z,1.15
2019-04-27T22:26:22.484Z,1.00
2019-04-27T22:28:52.190Z,1.42
2019-04-27T22:31:21.682Z,1.47
2019-04-27T22:33:54.378Z,0.90
2019-04-27T22:36:21.869Z,1.20
2019-04-27T22:38:51.715Z,1.05
2019-04-27T22:41:31.728Z,1.20
2019-04-27T22:44:08.409Z,1.57
2019-04-27T22:46:45.170Z,1.32
2019-04-27T22:49:14.493Z,1.25
2019-04-27T22:51:43.819Z,1.30
2019-04-27T22:54:13.048Z,1.42
2019-04-27T22:56:43.852Z,1.30
2019-04-27T22:59:17.491Z,1.65
2019-04-27T23:01:51.477Z,1.50
2019-04-27T23:04:27.877Z,1.52
2019-04-27T23:06:57.257Z,1.20
2019-04-27T23:09:26.557Z,1.25
2019-04-27T23:11:55.811Z,1.62
2019-04-27T23:14:25.063Z,1.40
2019-04-27T23:17:03.194Z,1.45
2019-04-27T23:19:32.596Z,1.55
2019-04-27T23:22:01.784Z,1.52
2019-04-27T23:24:31.135Z,1.25
2019-04-27T23:27:03.424Z,1.40
2019-04-27T23:29:33.166Z,1.25
2019-04-27T23:32:06.772Z,1.30
2019-04-27T23:34:36.813Z,1.42
2019-04-27T23:37:06.043Z,1.62
2019-04-27T23:39:35.263Z,1.55
2019-04-27T23:42:06.776Z,1.70
2019-04-27T23:44:35.357Z,1.57
2019-04-27T23:47:04.556Z,1.47
2019-04-27T23:49:33.821Z,1.52
2019-04-27T23:52:04.636Z,1.35
2019-04-27T23:54:33.953Z,2.10
2019-04-27T23:57:03.192Z,1.40
2019-04-27T23:59:33.361Z,1.40
